Bettles, Bettles Airport (PABT)

NameBettles Airport
CityBettles
CountryUnited States
ICAOPABT
IATABTT
Altitude197 m
CoordinatesGoogle Map
Live Air TrafficLiveATC.net
METARPABT 201053Z 01004KT 10SM CLR M22/M24 A3033 RMK AO2 SLP297 T12221244 PNO $
2019-02-20 10:53:00 Wind: North (10°) 2.06 m/s - Visibility: 16093.4 m - Temperature: -22 °C - Dew point: -24 °C - Humidity: 83.9% - Pressure: 1027.09 hPa
Statistics

The table below shows the detailed information of all flights to/from Bettles, Bettles Airport (PABT).